Corpus Christi, TX

10:01 AM CST on December 05, 2016 (GMT -0600)
Tadpole Moat | | Change Station

Elev 30 ft 27.75 °N, 97.38 °W | Updated 31 seconds ago

Overcast
Overcast
54.1 °F
Feels Like 54.1 °F
N
1.8
Wind Variable Wind from NNE
Gusts 4.9 mph

Today
High -- | Low -- °F
--% Chance of Precip.
Yesterday
High -- | Low -- °F
Precip. -- in
Pressure 29.89 in
Visibility 10.0 miles
Clouds Few 900 ft
Mostly Cloudy 1300 ft
Overcast 2600 ft
Dew Point 46 °F
Humidity 73%
Rainfall 0.07 in
Snow Depth Not available.
7:06 AM 5:34 PM
Waxing Crescent, 32% visible
SPECI KCRP 051525Z 33017KT 10SM FEW009 BKN013 OVC026 12/11 A2989 RMK AO2 RAE24 P0000 T01170106
Pressure 29.89 in
Visibility 10.0 miles
Clouds Few 900 ft
Mostly Cloudy 1300 ft
Overcast 2600 ft
Dew Point 46 °F
Humidity 73%
Rainfall 0.07 in
Snow Depth Not available.
7:06 AM 5:34 PM
Waxing Crescent, 32% visible
SPECI KCRP 051525Z 33017KT 10SM FEW009 BKN013 OVC026 12/11 A2989 RMK AO2 RAE24 P0000 T01170106

10-Day Weather Forecast

Almanac

Astronomy

Dec. 05, 2016 Rise Set
Actual Time
Civil Twilight
Nautical Twilight
Astronomical Twilight
Moon
Length of Visible Light
Length of Day
Tomorrow will be .
, % of the Moon is Illuminated

Today's Extremes

State Highs State Lows

Community

WunderPhotos

Upload Photos

1,955,800 photos uploaded!

WunderBlog® & News

Nearby

Air Quality

  Air Quality AQ Index Pollutant
Not available.

Snow Depth

Station Depth Elevation

Earthquake Activity

City Distance Mag. Time & Date
Minimum magnitude displayed is 2.5.

Coastal Water Temperatures

Place Temperature

Stations

Nearby Weather Stations

Station Location Temp. Windchill Dew Point Humidity Wind Precip. Elev Updated Type
                   

Watches & Warnings

There are currently no watches in effect.